EJU27FV LIMC-LFMN
Flight info
| Callsign | EJU27FV |
|---|---|
| Flight time | 0h 42m |
| Altitude | 17000 |
| Route | LAGEN Q712 ENOBA Z185 BORDI |
| Aircraft | A21N/M-SDE2E3FGHIRWXY/LB1 |
Departure
| Time | 2026-05-05 22:59 |
|---|---|
| Airport | Milan Malpensa International Airport (LIMC) |
Arrival
| Time | 2026-05-05 23:42 |
|---|---|
| Airport | Nice-Côte d'Azur Airport (LFMN) |
| Time | Latitude | Longitude | Altitude | Speed | Heading |
|---|---|---|---|---|---|
| 2026-05-05 22:59 | 45.50542 | 8.42366 | 16983 ft | 343 kts | 200° |
| 2026-05-05 22:59 | 45.48278 | 8.41289 | 16982 ft | 343 kts | 200° |
| 2026-05-05 22:59 | 45.46013 | 8.40213 | 16973 ft | 342 kts | 200° |
| 2026-05-05 22:59 | 45.43777 | 8.39135 | 16972 ft | 341 kts | 200° |
| 2026-05-05 23:00 | 45.39291 | 8.36936 | 16973 ft | 341 kts | 201° |
| 2026-05-05 23:00 | 45.37054 | 8.35829 | 16973 ft | 341 kts | 201° |
| 2026-05-05 23:00 | 45.34812 | 8.34726 | 16973 ft | 341 kts | 200° |
| 2026-05-05 23:01 | 45.32575 | 8.33623 | 16973 ft | 341 kts | 201° |
| 2026-05-05 23:01 | 45.30334 | 8.32515 | 16973 ft | 341 kts | 201° |
| 2026-05-05 23:01 | 45.28093 | 8.31409 | 16973 ft | 341 kts | 201° |
| 2026-05-05 23:01 | 45.25885 | 8.30329 | 16971 ft | 339 kts | 200° |
| 2026-05-05 23:02 | 45.23628 | 8.29229 | 16970 ft | 338 kts | 201° |
| 2026-05-05 23:02 | 45.22683 | 8.28766 | 16966 ft | 338 kts | 201° |
| 2026-05-05 23:02 | 45.20678 | 8.27783 | 16972 ft | 338 kts | 201° |
| 2026-05-05 23:02 | 45.18461 | 8.26697 | 16975 ft | 338 kts | 201° |
| 2026-05-05 23:03 | 45.16235 | 8.25602 | 16971 ft | 338 kts | 201° |
| 2026-05-05 23:03 | 45.14009 | 8.24512 | 16972 ft | 339 kts | 201° |
| 2026-05-05 23:03 | 45.11771 | 8.23612 | 16959 ft | 341 kts | 192° |
| 2026-05-05 23:03 | 45.09362 | 8.23565 | 16957 ft | 347 kts | 175° |
| 2026-05-05 23:04 | 45.07035 | 8.24326 | 16962 ft | 349 kts | 169° |
| 2026-05-05 23:04 | 45.04699 | 8.25257 | 16966 ft | 349 kts | 168° |
| 2026-05-05 23:04 | 45.02361 | 8.26185 | 16965 ft | 349 kts | 169° |
| 2026-05-05 23:04 | 45.00019 | 8.27094 | 16961 ft | 349 kts | 169° |
| 2026-05-05 23:05 | 44.97673 | 8.27990 | 16961 ft | 349 kts | 169° |
| 2026-05-05 23:05 | 44.95274 | 8.28901 | 16963 ft | 362 kts | 169° |
| 2026-05-05 23:05 | 44.92831 | 8.29824 | 16967 ft | 363 kts | 169° |
| 2026-05-05 23:05 | 44.90396 | 8.30745 | 16961 ft | 363 kts | 169° |
| 2026-05-05 23:06 | 44.87958 | 8.31665 | 16956 ft | 362 kts | 169° |
| 2026-05-05 23:06 | 44.85521 | 8.32581 | 16954 ft | 362 kts | 170° |
| 2026-05-05 23:06 | 44.83052 | 8.33001 | 16950 ft | 355 kts | 185° |
| 2026-05-05 23:06 | 44.80639 | 8.32433 | 16956 ft | 351 kts | 199° |
| 2026-05-05 23:07 | 44.78420 | 8.31053 | 16963 ft | 349 kts | 208° |
| 2026-05-05 23:07 | 44.76284 | 8.29434 | 16960 ft | 349 kts | 210° |
| 2026-05-05 23:07 | 44.74153 | 8.27800 | 16956 ft | 349 kts | 210° |
| 2026-05-05 23:07 | 44.72023 | 8.26188 | 16958 ft | 349 kts | 209° |
| 2026-05-05 23:08 | 44.69879 | 8.24583 | 16956 ft | 349 kts | 209° |
| 2026-05-05 23:08 | 44.67728 | 8.22977 | 16956 ft | 356 kts | 208° |
| 2026-05-05 23:08 | 44.65483 | 8.21310 | 16968 ft | 374 kts | 208° |
| 2026-05-05 23:08 | 44.63138 | 8.19573 | 16976 ft | 388 kts | 208° |
| 2026-05-05 23:09 | 44.60711 | 8.17781 | 16975 ft | 400 kts | 208° |
| 2026-05-05 23:09 | 44.58259 | 8.15975 | 16969 ft | 404 kts | 208° |
| 2026-05-05 23:09 | 44.55767 | 8.14147 | 16964 ft | 405 kts | 208° |
| 2026-05-05 23:09 | 44.53270 | 8.12313 | 16958 ft | 405 kts | 208° |
| 2026-05-05 23:10 | 44.50770 | 8.10477 | 16963 ft | 405 kts | 208° |
| 2026-05-05 23:10 | 44.48272 | 8.08641 | 16963 ft | 406 kts | 208° |
| 2026-05-05 23:10 | 44.45775 | 8.06805 | 16961 ft | 405 kts | 208° |
| 2026-05-05 23:10 | 44.43285 | 8.04988 | 16956 ft | 404 kts | 208° |
| 2026-05-05 23:11 | 44.40793 | 8.03161 | 16956 ft | 404 kts | 208° |
| 2026-05-05 23:11 | 44.38306 | 8.01337 | 16952 ft | 405 kts | 208° |
| 2026-05-05 23:11 | 44.35811 | 7.99518 | 16952 ft | 405 kts | 208° |
| 2026-05-05 23:11 | 44.33318 | 7.97700 | 16957 ft | 404 kts | 208° |
| 2026-05-05 23:12 | 44.30821 | 7.95882 | 16973 ft | 405 kts | 208° |
| 2026-05-05 23:12 | 44.28315 | 7.94063 | 16974 ft | 405 kts | 208° |
| 2026-05-05 23:12 | 44.25817 | 7.92245 | 16964 ft | 405 kts | 208° |
| 2026-05-05 23:12 | 44.23315 | 7.90432 | 16988 ft | 405 kts | 208° |
| 2026-05-05 23:13 | 44.20847 | 7.88642 | 16972 ft | 406 kts | 208° |
| 2026-05-05 23:13 | 44.18345 | 7.86816 | 16965 ft | 405 kts | 208° |
| 2026-05-05 23:13 | 44.15849 | 7.84998 | 16964 ft | 405 kts | 208° |
| 2026-05-05 23:13 | 44.13358 | 7.83192 | 16955 ft | 403 kts | 208° |
| 2026-05-05 23:14 | 44.10874 | 7.81396 | 16954 ft | 402 kts | 208° |
| 2026-05-05 23:14 | 44.08397 | 7.79612 | 16983 ft | 403 kts | 207° |
| 2026-05-05 23:14 | 44.05911 | 7.77829 | 16930 ft | 402 kts | 208° |
| 2026-05-05 23:14 | 44.03525 | 7.76043 | 16911 ft | 375 kts | 211° |
| 2026-05-05 23:15 | 44.01608 | 7.73798 | 16914 ft | 349 kts | 227° |
| 2026-05-05 23:15 | 44.00191 | 7.71168 | 16925 ft | 333 kts | 233° |
| 2026-05-05 23:15 | 43.98799 | 7.68629 | 16923 ft | 330 kts | 225° |
| 2026-05-05 23:15 | 43.97014 | 7.66642 | 16924 ft | 330 kts | 210° |
| 2026-05-05 23:16 | 43.94898 | 7.65423 | 16935 ft | 331 kts | 196° |
| 2026-05-05 23:16 | 43.92599 | 7.65061 | 16935 ft | 335 kts | 181° |
| 2026-05-05 23:16 | 43.90289 | 7.65607 | 16935 ft | 341 kts | 167° |
| 2026-05-05 23:16 | 43.88138 | 7.67044 | 16883 ft | 345 kts | 152° |
| 2026-05-05 23:17 | 43.86307 | 7.69195 | 16659 ft | 347 kts | 142° |
| 2026-05-05 23:17 | 43.84585 | 7.71535 | 16451 ft | 346 kts | 141° |
| 2026-05-05 23:17 | 43.82867 | 7.73860 | 16199 ft | 345 kts | 142° |
| 2026-05-05 23:17 | 43.81139 | 7.76158 | 15966 ft | 344 kts | 142° |
| 2026-05-05 23:18 | 43.79427 | 7.78406 | 15887 ft | 344 kts | 142° |
| 2026-05-05 23:18 | 43.77691 | 7.80678 | 15890 ft | 344 kts | 142° |
| 2026-05-05 23:18 | 43.75950 | 7.82944 | 15903 ft | 343 kts | 142° |
| 2026-05-05 23:18 | 43.74214 | 7.85198 | 15815 ft | 342 kts | 142° |
| 2026-05-05 23:19 | 43.72481 | 7.87447 | 15609 ft | 341 kts | 142° |
| 2026-05-05 23:19 | 43.70749 | 7.89691 | 15373 ft | 340 kts | 142° |
| 2026-05-05 23:19 | 43.69024 | 7.91925 | 15125 ft | 339 kts | 142° |
| 2026-05-05 23:19 | 43.67304 | 7.94149 | 14879 ft | 338 kts | 142° |
| 2026-05-05 23:20 | 43.65581 | 7.96362 | 14634 ft | 338 kts | 142° |
| 2026-05-05 23:20 | 43.63868 | 7.98573 | 14372 ft | 337 kts | 142° |
| 2026-05-05 23:20 | 43.62160 | 8.00788 | 14128 ft | 336 kts | 142° |
| 2026-05-05 23:20 | 43.60455 | 8.02992 | 13947 ft | 336 kts | 142° |
| 2026-05-05 23:21 | 43.58747 | 8.05200 | 13905 ft | 336 kts | 142° |
| 2026-05-05 23:21 | 43.56987 | 8.07288 | 13924 ft | 332 kts | 149° |
| 2026-05-05 23:21 | 43.54960 | 8.08708 | 13930 ft | 324 kts | 166° |
| 2026-05-05 23:21 | 43.52764 | 8.09229 | 13932 ft | 318 kts | 182° |
| 2026-05-05 23:22 | 43.50591 | 8.08851 | 13939 ft | 315 kts | 197° |
| 2026-05-05 23:22 | 43.48614 | 8.07683 | 13926 ft | 314 kts | 211° |
| 2026-05-05 23:22 | 43.46900 | 8.05860 | 13776 ft | 314 kts | 220° |
| 2026-05-05 23:22 | 43.45284 | 8.03845 | 13541 ft | 313 kts | 221° |
| 2026-05-05 23:23 | 43.43673 | 8.01833 | 13285 ft | 312 kts | 221° |
| 2026-05-05 23:23 | 43.42053 | 7.99839 | 13022 ft | 312 kts | 221° |
| 2026-05-05 23:23 | 43.40553 | 7.97691 | 12905 ft | 313 kts | 231° |
| 2026-05-05 23:23 | 43.39481 | 7.95075 | 12914 ft | 317 kts | 246° |
| 2026-05-05 23:24 | 43.38987 | 7.92104 | 12922 ft | 323 kts | 261° |
| 2026-05-05 23:24 | 43.39144 | 7.89005 | 12927 ft | 331 kts | 278° |
| 2026-05-05 23:24 | 43.39975 | 7.86019 | 12935 ft | 339 kts | 293° |
| 2026-05-05 23:24 | 43.41153 | 7.83205 | 12941 ft | 340 kts | 295° |
| 2026-05-05 23:25 | 43.42350 | 7.80404 | 12939 ft | 340 kts | 295° |
| 2026-05-05 23:25 | 43.43513 | 7.77620 | 12940 ft | 339 kts | 295° |
| 2026-05-05 23:25 | 43.44682 | 7.74797 | 12963 ft | 340 kts | 294° |
| 2026-05-05 23:25 | 43.45840 | 7.71985 | 12976 ft | 340 kts | 294° |
| 2026-05-05 23:26 | 43.46691 | 7.69014 | 12975 ft | 330 kts | 275° |
| 2026-05-05 23:26 | 43.46637 | 7.65926 | 12921 ft | 320 kts | 253° |
| 2026-05-05 23:26 | 43.45816 | 7.63128 | 12717 ft | 313 kts | 236° |
| 2026-05-05 23:26 | 43.44413 | 7.60881 | 12483 ft | 310 kts | 220° |
| 2026-05-05 23:27 | 43.42737 | 7.59016 | 12246 ft | 309 kts | 218° |
| 2026-05-05 23:27 | 43.41105 | 7.57079 | 11996 ft | 310 kts | 221° |
| 2026-05-05 23:27 | 43.39584 | 7.54977 | 11742 ft | 310 kts | 226° |
| 2026-05-05 23:27 | 43.38174 | 7.52729 | 11479 ft | 311 kts | 229° |
| 2026-05-05 23:28 | 43.36882 | 7.50360 | 11225 ft | 309 kts | 233° |
| 2026-05-05 23:28 | 43.35704 | 7.47890 | 10962 ft | 307 kts | 236° |
| 2026-05-05 23:28 | 43.34654 | 7.45378 | 10705 ft | 298 kts | 239° |
| 2026-05-05 23:28 | 43.33751 | 7.42901 | 10438 ft | 286 kts | 242° |
| 2026-05-05 23:29 | 43.32982 | 7.40449 | 10177 ft | 275 kts | 245° |
| 2026-05-05 23:29 | 43.32326 | 7.38000 | 9858 ft | 272 kts | 248° |
| 2026-05-05 23:29 | 43.31773 | 7.35524 | 9452 ft | 271 kts | 251° |
| 2026-05-05 23:29 | 43.31311 | 7.33005 | 9025 ft | 272 kts | 254° |
| 2026-05-05 23:30 | 43.30948 | 7.30463 | 8611 ft | 272 kts | 257° |
| 2026-05-05 23:30 | 43.30690 | 7.27926 | 8214 ft | 271 kts | 260° |
| 2026-05-05 23:30 | 43.30529 | 7.25348 | 7816 ft | 271 kts | 263° |
| 2026-05-05 23:30 | 43.30462 | 7.22794 | 7429 ft | 271 kts | 265° |
| 2026-05-05 23:31 | 43.30490 | 7.20204 | 7049 ft | 271 kts | 269° |
| 2026-05-05 23:31 | 43.30611 | 7.17625 | 6662 ft | 271 kts | 271° |
| 2026-05-05 23:31 | 43.31015 | 7.15093 | 6282 ft | 274 kts | 287° |
| 2026-05-05 23:31 | 43.31805 | 7.12701 | 6011 ft | 275 kts | 292° |
| 2026-05-05 23:32 | 43.32641 | 7.10341 | 5961 ft | 275 kts | 292° |
| 2026-05-05 23:32 | 43.33472 | 7.07978 | 5969 ft | 274 kts | 292° |
| 2026-05-05 23:32 | 43.34296 | 7.05632 | 5975 ft | 266 kts | 292° |
| 2026-05-05 23:32 | 43.35078 | 7.03391 | 5972 ft | 252 kts | 291° |
| 2026-05-05 23:33 | 43.35801 | 7.01286 | 5972 ft | 236 kts | 291° |
| 2026-05-05 23:33 | 43.36489 | 6.99288 | 5967 ft | 226 kts | 291° |
| 2026-05-05 23:33 | 43.37148 | 6.97371 | 5967 ft | 221 kts | 291° |
| 2026-05-05 23:33 | 43.37797 | 6.95458 | 5979 ft | 221 kts | 290° |
| 2026-05-05 23:34 | 43.38577 | 6.93637 | 5977 ft | 225 kts | 310° |
| 2026-05-05 23:34 | 43.39851 | 6.92413 | 5702 ft | 226 kts | 332° |
| 2026-05-05 23:34 | 43.41399 | 6.91974 | 5244 ft | 234 kts | 4° |
| 2026-05-05 23:34 | 43.42944 | 6.92698 | 4815 ft | 237 kts | 33° |
| 2026-05-05 23:35 | 43.44253 | 6.94000 | 4557 ft | 234 kts | 39° |
| 2026-05-05 23:35 | 43.45560 | 6.95364 | 4272 ft | 231 kts | 39° |
| 2026-05-05 23:35 | 43.46827 | 6.96663 | 4010 ft | 229 kts | 38° |
| 2026-05-05 23:35 | 43.48110 | 6.97952 | 3966 ft | 229 kts | 38° |
| 2026-05-05 23:36 | 43.49397 | 6.99235 | 3972 ft | 223 kts | 38° |
| 2026-05-05 23:36 | 43.50578 | 7.00430 | 4008 ft | 200 kts | 41° |
| 2026-05-05 23:36 | 43.51536 | 7.01677 | 3981 ft | 180 kts | 48° |
| 2026-05-05 23:36 | 43.52367 | 7.02830 | 3958 ft | 163 kts | 48° |
| 2026-05-05 23:37 | 43.53166 | 7.03925 | 3962 ft | 162 kts | 46° |
| 2026-05-05 23:37 | 43.53977 | 7.05016 | 3979 ft | 163 kts | 48° |
| 2026-05-05 23:37 | 43.54782 | 7.06115 | 4006 ft | 163 kts | 48° |
| 2026-05-05 23:37 | 43.55587 | 7.07219 | 4011 ft | 163 kts | 47° |
| 2026-05-05 23:38 | 43.56387 | 7.08316 | 4001 ft | 162 kts | 48° |
| 2026-05-05 23:38 | 43.57182 | 7.09407 | 4000 ft | 160 kts | 48° |
| 2026-05-05 23:38 | 43.57974 | 7.10498 | 3996 ft | 161 kts | 48° |
| 2026-05-05 23:38 | 43.58762 | 7.11576 | 3996 ft | 153 kts | 48° |
| 2026-05-05 23:39 | 43.59487 | 7.12572 | 3991 ft | 145 kts | 49° |
| 2026-05-05 23:39 | 43.60196 | 7.13546 | 3774 ft | 143 kts | 48° |
| 2026-05-05 23:39 | 43.60908 | 7.14525 | 3292 ft | 144 kts | 48° |
| 2026-05-05 23:39 | 43.61607 | 7.15488 | 2751 ft | 140 kts | 47° |
| 2026-05-05 23:40 | 43.62282 | 7.16414 | 2164 ft | 134 kts | 46° |
| 2026-05-05 23:40 | 43.62926 | 7.17310 | 1614 ft | 129 kts | 45° |
| 2026-05-05 23:40 | 43.63569 | 7.18185 | 1534 ft | 130 kts | 44° |
| 2026-05-05 23:40 | 43.64180 | 7.19079 | 1074 ft | 132 kts | 46° |
| 2026-05-05 23:41 | 43.64839 | 7.19965 | 455 ft | 132 kts | 42° |
| 2026-05-05 23:41 | 43.65513 | 7.20873 | 45 ft | 134 kts | 41° |
| 2026-05-05 23:41 | 43.66120 | 7.21694 | 26 ft | 106 kts | 45° |
| 2026-05-05 23:41 | 43.66523 | 7.22254 | 27 ft | 55 kts | 45° |
| 2026-05-05 23:42 | 43.66642 | 7.22413 | 25 ft | 17 kts | 43° |
| 2026-05-05 23:42 | 43.66748 | 7.22484 | 25 ft | 12 kts | 317° |
| 2026-05-05 23:42 | 43.66813 | 7.22395 | 26 ft | 15 kts | 315° |
| 2026-05-05 23:42 | 43.66801 | 7.22308 | 28 ft | 12 kts | 221° |
| 2026-05-05 23:43 | 43.66735 | 7.22224 | 26 ft | 14 kts | 223° |
| 2026-05-05 23:43 | 43.66662 | 7.22118 | 26 ft | 17 kts | 225° |
| 2026-05-05 23:43 | 43.66574 | 7.21997 | 26 ft | 19 kts | 225° |
| 2026-05-05 23:43 | 43.66476 | 7.21860 | 26 ft | 21 kts | 225° |
| 2026-05-05 23:44 | 43.66367 | 7.21709 | 26 ft | 23 kts | 225° |
| 2026-05-05 23:44 | 43.66248 | 7.21544 | 26 ft | 25 kts | 225° |
| 2026-05-05 23:44 | 43.66161 | 7.21431 | 29 ft | 27 kts | 224° |
| 2026-05-05 23:44 | 43.66036 | 7.21260 | 26 ft | 25 kts | 225° |
| 2026-05-05 23:45 | 43.65933 | 7.21119 | 26 ft | 12 kts | 225° |
| 2026-05-05 23:45 | 43.65870 | 7.21033 | 26 ft | 14 kts | 225° |
| 2026-05-05 23:45 | 43.65796 | 7.20929 | 26 ft | 16 kts | 238° |
| 2026-05-05 23:45 | 43.65875 | 7.20857 | 26 ft | 16 kts | 347° |
| 2026-05-05 23:46 | 43.65955 | 7.20830 | 27 ft | 9 kts | 346° |
| 2026-05-05 23:46 | 43.66025 | 7.20808 | 27 ft | 12 kts | 353° |
| 2026-05-05 23:46 | 43.66079 | 7.20799 | 27 ft | 2 kts | 341° |
| 2026-05-05 23:46 | 43.66087 | 7.20775 | 27 ft | 4 kts | 264° |
| 2026-05-05 23:47 | 43.66082 | 7.20720 | 27 ft | 5 kts | 262° |
| 2026-05-05 23:47 | 43.66079 | 7.20695 | 27 ft | 0 kts | 262° |
| 2026-05-05 23:47 | 43.66078 | 7.20689 | 27 ft | 2 kts | 261° |
| 2026-05-06 00:00 | 43.66078 | 7.20690 | 27 ft | 0 kts | 261° |
| 2026-05-06 00:01 | 43.66079 | 7.20690 | 27 ft | 0 kts | 261° |